Time;durP1;ratioP1;P1;durP2;ratioP2;P2;SDS_P1;SDS_P2;PMS_P1;PMS_P2;Temp;Humidity;BMP_temperature;BMP_pressure;BME280_temperature;BME280_humidity;BME280_pressure;Samples;Min_cycle;Max_cycle;Signal;HPM_P1;HPM_P2
2023/09/08 00:00:47;;;;;;;5.95;4.82;;;22.60;70.30;;;;;;5052363;28;20132;-33
2023/09/08 00:03:14;;;;;;;5.50;4.47;;;;;;;;;;5052022;28;20131;-29
2023/09/08 00:05:41;;;;;;;4.43;4.03;;;;;;;;;;5052099;28;20128;-30
2023/09/08 00:08:08;;;;;;;5.13;4.38;;;;;;;;;;5051991;28;20157;-35
2023/09/08 00:10:36;;;;;;;5.07;4.20;;;22.90;86.60;;;;;;5052000;28;20549;-30
2023/09/08 00:13:03;;;;;;;5.47;4.30;;;23.00;86.60;;;;;;5059404;28;20127;-29
2023/09/08 00:15:30;;;;;;;4.60;4.20;;;;;;;;;;5072067;28;20132;-30
2023/09/08 00:17:57;;;;;;;4.65;3.95;;;22.60;78.80;;;;;;5070721;28;20139;-31
2023/09/08 00:20:24;;;;;;;5.32;4.68;;;22.60;85.70;;;;;;5071675;28;20052;-30
2023/09/08 00:22:51;;;;;;;4.97;4.15;;;;;;;;;;5071694;28;20048;-29
2023/09/08 00:25:18;;;;;;;4.72;4.22;;;22.60;85.60;;;;;;5071921;28;20147;-32
2023/09/08 00:27:46;;;;;;;5.57;4.28;;;22.40;85.90;;;;;;5071901;28;20151;-31
2023/09/08 00:30:13;;;;;;;5.47;4.47;;;22.50;85.60;;;;;;5071830;28;20135;-30
2023/09/08 00:32:40;;;;;;;4.90;4.38;;;22.40;85.50;;;;;;5071385;28;20123;-29
2023/09/08 00:35:07;;;;;;;5.78;4.50;;;22.20;86.20;;;;;;5071700;28;20128;-31
2023/09/08 00:37:34;;;;;;;5.00;4.50;;;22.10;86.00;;;;;;5070999;28;20413;-30
2023/09/08 00:40:01;;;;;;;5.00;4.32;;;21.90;85.70;;;;;;5071636;28;20127;-30
2023/09/08 00:42:27;;;;;;;5.07;4.50;;;21.90;86.00;;;;;;5071284;28;20613;-31
2023/09/08 00:44:55;;;;;;;4.53;4.10;;;21.60;79.50;;;;;;5071529;28;20128;-32
2023/09/08 00:47:22;;;;;;;6.53;4.47;;;22.60;77.90;;;;;;5067000;28;20573;-30
2023/09/08 00:49:51;;;;;;;4.53;4.00;;;22.80;86.50;;;;;;5071345;28;20140;-30
2023/09/08 00:52:18;;;;;;;4.95;4.45;;;;;;;;;;5071377;28;20048;-30
2023/09/08 00:54:44;;;;;;;4.75;4.25;;;22.10;84.10;;;;;;5071678;28;20124;-31
2023/09/08 00:57:11;;;;;;;5.18;4.32;;;22.40;85.60;;;;;;5071594;28;20469;-31
2023/09/08 00:59:38;;;;;;;5.35;4.40;;;;;;;;;;5071302;28;20118;-30
2023/09/08 01:02:06;;;;;;;5.45;4.25;;;21.60;85.10;;;;;;5071522;28;20133;-35
2023/09/08 01:04:33;;;;;;;4.75;4.25;;;21.90;85.50;;;;;;5071101;28;20135;-37
2023/09/08 01:07:00;;;;;;;5.57;4.47;;;22.00;85.30;;;;;;5071520;28;20053;-38
2023/09/08 01:09:27;;;;;;;4.47;4.00;;;;;;;;;;5071489;28;20123;-34
2023/09/08 01:11:55;;;;;;;7.97;4.25;;;22.20;85.40;;;;;;5071647;28;20132;-34
2023/09/08 01:14:22;;;;;;;5.82;4.30;;;22.60;81.10;;;;;;5070465;28;20044;-38
2023/09/08 01:16:48;;;;;;;4.97;4.47;;;21.50;85.10;;;;;;5057649;28;20119;-35
2023/09/08 01:19:16;;;;;;;4.63;4.18;;;22.20;85.20;;;;;;5050941;28;20052;-37
2023/09/08 01:21:54;;;;;;;4.45;4.05;;;22.30;78.30;;;;;;5051493;28;20132;-38
2023/09/08 01:24:35;;;;;;;5.20;4.55;;;22.50;74.20;;;;;;5050941;28;20480;-35
2023/09/08 01:27:03;;;;;;;6.00;4.50;;;22.60;86.40;;;;;;5051369;28;20080;-35
2023/09/08 01:29:30;;;;;;;6.05;4.78;;;22.20;85.40;;;;;;5052243;28;20128;-37
2023/09/08 01:31:57;;;;;;;6.80;4.57;;;22.10;85.40;;;;;;5051293;28;20137;-34
2023/09/08 01:34:23;;;;;;;5.78;4.50;;;23.10;78.70;;;;;;5052195;28;20477;-35
2023/09/08 01:36:49;;;;;;;5.00;4.45;;;21.90;85.60;;;;;;5066016;28;20048;-36
2023/09/08 01:39:16;;;;;;;4.90;4.40;;;;;;;;;;5071458;28;20044;-37
2023/09/08 01:41:43;;;;;;;5.03;4.45;;;22.50;86.00;;;;;;5070912;28;20144;-36
2023/09/08 01:44:12;;;;;;;4.78;4.28;;;21.90;70.90;;;;;;5070564;28;20127;-35
2023/09/08 01:46:40;;;;;;;6.57;4.40;;;22.10;86.10;;;;;;5070446;28;20067;-35
2023/09/08 01:49:07;;;;;;;4.70;4.15;;;22.10;85.70;;;;;;5072419;28;20559;-37
2023/09/08 01:51:34;;;;;;;4.75;4.35;;;23.00;72.20;;;;;;5074749;28;20135;-35
2023/09/08 01:54:01;;;;;;;5.60;4.15;;;22.20;85.40;;;;;;5074187;28;20049;-36
2023/09/08 01:56:28;;;;;;;5.78;4.38;;;;;;;;;;5074495;28;20131;-34
2023/09/08 01:58:55;;;;;;;4.72;4.22;;;22.20;83.40;;;;;;5074750;28;20137;-34
2023/09/08 02:01:23;;;;;;;4.80;4.30;;;21.70;85.10;;;;;;5074634;28;20127;-38
2023/09/08 02:03:50;;;;;;;4.55;3.92;;;22.30;85.80;;;;;;5058871;28;20128;-35
2023/09/08 02:06:16;;;;;;;4.65;4.22;;;22.10;78.00;;;;;;5054300;28;20490;-35
2023/09/08 02:08:43;;;;;;;5.22;4.38;;;22.30;85.70;;;;;;5054334;28;20063;-34
2023/09/08 02:11:10;;;;;;;4.78;4.20;;;22.20;85.70;;;;;;5054293;28;20137;-38
2023/09/08 02:13:37;;;;;;;5.13;4.63;;;;;;;;;;5054208;28;20127;-36
2023/09/08 02:16:04;;;;;;;4.72;4.32;;;22.70;75.20;;;;;;5054099;28;20129;-37
2023/09/08 02:18:32;;;;;;;6.28;4.80;;;22.40;69.80;;;;;;5055399;28;20044;-34
2023/09/08 02:20:59;;;;;;;5.00;4.47;;;;;;;;;;5054349;28;20132;-35
2023/09/08 02:23:26;;;;;;;5.03;4.53;;;22.60;86.40;;;;;;5053783;28;20045;-34
2023/09/08 02:25:52;;;;;;;5.75;4.72;;;22.00;85.70;;;;;;5053886;28;20049;-38
2023/09/08 02:28:19;;;;;;;8.02;4.20;;;;;;;;;;5054126;28;20132;-32
2023/09/08 02:30:46;;;;;;;5.07;4.57;;;22.10;85.20;;;;;;5053871;28;20072;-36
2023/09/08 02:33:13;;;;;;;4.65;4.25;;;;;;;;;;5069754;28;20068;-38
2023/09/08 02:35:41;;;;;;;4.95;4.45;;;22.00;86.00;;;;;;5073821;28;20128;-36
2023/09/08 02:38:08;;;;;;;5.72;4.50;;;22.00;85.20;;;;;;5073198;28;20131;-35
2023/09/08 02:40:34;;;;;;;5.00;4.18;;;22.40;85.50;;;;;;5073717;28;20171;-35
2023/09/08 02:43:02;;;;;;;5.13;4.55;;;;;;;;;;5073647;28;20128;-33
2023/09/08 02:45:28;;;;;;;5.10;4.28;;;22.00;86.00;;;;;;5073683;28;20083;-37
2023/09/08 02:47:55;;;;;;;5.53;4.25;;;22.90;85.70;;;;;;5057773;28;20124;-34
2023/09/08 02:50:22;;;;;;;4.90;4.40;;;;;;;;;;5053641;28;20057;-33
2023/09/08 02:52:50;;;;;;;5.60;4.40;;;22.30;69.60;;;;;;5053084;28;20044;-30
2023/09/08 02:55:17;;;;;;;4.97;4.47;;;21.90;85.90;;;;;;5053438;28;20128;-29
2023/09/08 02:57:44;;;;;;;5.18;4.20;;;;;;;;;;5053553;28;20128;-35
2023/09/08 03:00:11;;;;;;;4.55;4.07;;;22.00;85.20;;;;;;5053444;28;20132;-29
2023/09/08 03:02:38;;;;;;;4.72;4.25;;;21.60;76.90;;;;;;5053088;28;20132;-30
2023/09/08 03:05:05;;;;;;;4.47;4.05;;;22.00;85.20;;;;;;5053159;28;20080;-29
2023/09/08 03:07:33;;;;;;;4.63;4.20;;;;;;;;;;5053263;28;20053;-34
2023/09/08 03:10:01;;;;;;;4.72;4.22;;;22.20;69.50;;;;;;5053183;28;20075;-33
2023/09/08 03:12:28;;;;;;;4.75;4.25;;;;;;;;;;5067936;28;20135;-33
2023/09/08 03:14:55;;;;;;;5.10;4.40;;;22.40;69.60;;;;;;5060489;28;20136;-35
2023/09/08 03:17:22;;;;;;;4.95;4.45;;;;;;;;;;5053211;28;20077;-33
2023/09/08 03:19:49;;;;;;;4.97;4.28;;;22.40;86.10;;;;;;5052908;28;20512;-37
2023/09/08 03:22:16;;;;;;;4.75;4.30;;;21.90;85.00;;;;;;5053020;28;20124;-36
2023/09/08 03:24:43;;;;;;;5.10;4.60;;;;;;;;;;5052844;28;20544;-34
2023/09/08 03:27:11;;;;;;;5.25;4.43;;;22.20;69.50;;;;;;5052838;28;20128;-32
2023/09/08 03:29:38;;;;;;;4.80;4.30;;;22.00;85.20;;;;;;5070652;28;20131;-36
2023/09/08 03:32:05;;;;;;;5.05;4.40;;;22.90;85.60;;;;;;5072931;28;20127;-36
2023/09/08 03:34:32;;;;;;;5.97;4.57;;;22.20;85.30;;;;;;5072612;28;20127;-34
2023/09/08 03:36:59;;;;;;;4.93;4.30;;;21.90;69.30;;;;;;5072025;28;20516;-34
2023/09/08 03:39:26;;;;;;;5.20;4.70;;;;;;;;;;5072625;28;20584;-35
2023/09/08 03:41:53;;;;;;;4.93;4.43;;;;;;;;;;5064020;28;20152;-32
2023/09/08 03:44:21;;;;;;;4.50;4.10;;;22.20;86.00;;;;;;5066090;28;20127;-37
2023/09/08 03:46:48;;;;;;;5.30;4.55;;;22.10;85.90;;;;;;5069189;28;20049;-35
2023/09/08 03:49:15;;;;;;;4.78;4.28;;;21.90;76.00;;;;;;5061203;28;20135;-34
2023/09/08 03:51:42;;;;;;;4.90;4.40;;;;;;;;;;5063095;28;20067;-35
2023/09/08 03:54:09;;;;;;;5.20;4.70;;;;;;;;;;5063448;28;20131;-36
2023/09/08 03:56:36;;;;;;;4.78;4.20;;;;;;;;;;5061149;28;20235;-34
2023/09/08 03:59:03;;;;;;;4.97;4.47;;;21.50;84.90;;;;;;5061017;28;20127;-33
2023/09/08 04:01:31;;;;;;;5.47;4.43;;;22.50;86.30;;;;;;5060975;28;20127;-38
2023/09/08 04:03:57;;;;;;;4.65;4.22;;;22.10;82.60;;;;;;5061343;28;20140;-33
2023/09/08 04:06:25;;;;;;;5.63;4.50;;;21.20;80.40;;;;;;5062601;28;20128;-37
2023/09/08 04:08:51;;;;;;;5.82;4.30;;;22.10;85.40;;;;;;5060005;28;20041;-36
2023/09/08 04:11:18;;;;;;;6.10;4.90;;;;;;;;;;5061753;28;20123;-32
2023/09/08 04:13:45;;;;;;;5.28;4.60;;;22.10;85.10;;;;;;5060523;28;20123;-33
2023/09/08 04:16:12;;;;;;;5.28;4.78;;;22.20;85.60;;;;;;5060566;28;20124;-30
2023/09/08 04:18:40;;;;;;;5.93;4.45;;;21.70;73.80;;;;;;5060215;28;20119;-30
2023/09/08 04:21:07;;;;;;;4.75;4.10;;;22.10;69.40;;;;;;5062010;28;20143;-32
2023/09/08 04:23:34;;;;;;;5.95;4.53;;;21.90;85.30;;;;;;5059525;28;20063;-30
2023/09/08 04:26:00;;;;;;;4.78;4.28;;;22.00;74.20;;;;;;5071327;28;20246;-30
2023/09/08 04:28:27;;;;;;;5.07;4.50;;;22.00;84.90;;;;;;5071839;28;20136;-30
2023/09/08 04:30:54;;;;;;;4.97;4.47;;;21.30;85.50;;;;;;5071758;28;20454;-29
2023/09/08 04:33:21;;;;;;;5.07;4.40;;;;;;;;;;5071770;28;20132;-32
2023/09/08 04:35:49;;;;;;;5.57;4.50;;;22.00;85.00;;;;;;5071322;28;20124;-30
2023/09/08 04:38:16;;;;;;;4.97;4.47;;;21.90;85.80;;;;;;5051777;28;20128;-30
2023/09/08 04:40:42;;;;;;;5.15;4.38;;;22.40;85.70;;;;;;5051492;28;20103;-31
2023/09/08 04:43:09;;;;;;;6.25;4.40;;;21.70;74.30;;;;;;5055506;28;20123;-31
2023/09/08 04:45:36;;;;;;;6.10;4.57;;;;;;;;;;5071307;28;20134;-30
2023/09/08 04:48:03;;;;;;;4.97;4.47;;;22.10;69.30;;;;;;5071866;28;20123;-34
2023/09/08 04:50:30;;;;;;;5.38;4.43;;;21.90;85.00;;;;;;5062668;28;20128;-30
2023/09/08 04:52:58;;;;;;;5.40;4.80;;;22.10;69.30;;;;;;5051382;28;20124;-30
2023/09/08 04:55:25;;;;;;;5.53;4.80;;;;;;;;;;5051468;28;20132;-30
2023/09/08 04:57:52;;;;;;;4.90;4.40;;;22.10;85.80;;;;;;5051270;28;20451;-30
2023/09/08 05:00:19;;;;;;;5.20;4.20;;;21.70;84.90;;;;;;5051768;28;20132;-30
2023/09/08 05:02:46;;;;;;;5.55;4.50;;;;;;;;;;5056554;28;20127;-33
2023/09/08 05:05:12;;;;;;;6.45;4.20;;;21.60;85.50;;;;;;5054202;28;20072;-30
2023/09/08 05:07:39;;;;;;;5.88;4.55;;;21.90;84.90;;;;;;5051291;28;20129;-30
2023/09/08 05:10:08;;;;;;;4.65;4.18;;;21.40;72.00;;;;;;5051478;28;20131;-33
2023/09/08 05:12:35;;;;;;;5.22;4.72;;;22.20;85.80;;;;;;5051060;28;20061;-30
2023/09/08 05:15:06;;;;;;;5.18;4.47;;;;;;;;;;5051549;28;20132;-31
2023/09/08 05:17:33;;;;;;;4.40;4.00;;;21.90;85.60;;;;;;5051483;28;20044;-30
2023/09/08 05:20:00;;;;;;;5.80;4.63;;;21.70;72.00;;;;;;5051426;28;20135;-32
2023/09/08 05:22:27;;;;;;;5.25;4.40;;;21.80;85.30;;;;;;5071067;28;20127;-30
2023/09/08 05:24:54;;;;;;;5.07;4.57;;;22.30;86.00;;;;;;5073852;28;20132;-31
2023/09/08 05:27:22;;;;;;;4.82;4.30;;;22.20;71.80;;;;;;5075274;28;20044;-31
2023/09/08 05:29:48;;;;;;;4.68;4.13;;;22.00;71.90;;;;;;5075120;28;20131;-33
2023/09/08 05:32:15;;;;;;;4.93;4.43;;;22.10;81.30;;;;;;5060906;28;20128;-30
2023/09/08 05:34:42;;;;;;;5.25;4.22;;;21.60;84.90;;;;;;5054946;28;20132;-31
2023/09/08 05:37:09;;;;;;;5.65;4.35;;;;;;;;;;5065715;28;20127;-35
2023/09/08 05:39:36;;;;;;;4.88;4.30;;;21.60;85.40;;;;;;5074776;28;20052;-33
2023/09/08 05:42:03;;;;;;;4.70;4.22;;;;;;;;;;5074557;28;20484;-32
2023/09/08 05:44:31;;;;;;;5.93;4.38;;;21.80;85.10;;;;;;5072633;28;20080;-32
2023/09/08 05:46:58;;;;;;;5.00;4.40;;;21.70;85.80;;;;;;5054878;28;20466;-32
2023/09/08 05:49:25;;;;;;;4.63;4.22;;;21.10;85.50;;;;;;5054531;28;20131;-32
2023/09/08 05:51:51;;;;;;;5.43;4.63;;;21.30;80.20;;;;;;5054661;28;20051;-33
2023/09/08 05:54:18;;;;;;;5.15;4.63;;;21.90;85.10;;;;;;5054616;28;20132;-31
2023/09/08 05:56:45;;;;;;;4.75;4.25;;;21.70;85.00;;;;;;5054406;28;20711;-31
2023/09/08 05:59:12;;;;;;;5.03;4.43;;;;;;;;;;5064516;28;20132;-32
2023/09/08 06:01:40;;;;;;;5.03;4.50;;;21.50;85.30;;;;;;5074379;28;20048;-30
2023/09/08 06:04:07;;;;;;;4.78;4.13;;;21.80;85.10;;;;;;5074252;28;20048;-31
2023/09/08 06:06:34;;;;;;;6.85;4.43;;;21.90;77.70;;;;;;5074241;28;20132;-32
2023/09/08 06:09:00;;;;;;;5.25;4.38;;;22.10;84.50;;;;;;5074575;28;20131;-32
2023/09/08 06:11:27;;;;;;;5.32;4.60;;;21.80;82.50;;;;;;5074409;28;20131;-31
2023/09/08 06:13:58;;;;;;;4.78;4.30;;;22.00;83.90;;;;;;5055287;28;20060;-32
2023/09/08 06:16:24;;;;;;;5.60;4.93;;;21.90;85.10;;;;;;5055919;28;20052;-31
2023/09/08 06:18:52;;;;;;;5.65;4.43;;;21.80;85.10;;;;;;5074105;28;20040;-31
2023/09/08 06:21:19;;;;;;;4.80;4.30;;;22.30;86.10;;;;;;5074152;28;20132;-32
2023/09/08 06:23:46;;;;;;;5.20;4.57;;;;;;;;;;5073970;28;20515;-31
2023/09/08 06:26:13;;;;;;;4.88;4.30;;;21.50;84.90;;;;;;5073132;28;20143;-32
2023/09/08 06:28:41;;;;;;;4.80;4.30;;;;;;;;;;5063346;28;20554;-31
2023/09/08 06:31:08;;;;;;;6.18;4.43;;;;;;;;;;5058522;28;20044;-36
2023/09/08 06:33:35;;;;;;;4.80;4.10;;;22.00;86.00;;;;;;5063023;28;20518;-31
2023/09/08 06:36:03;;;;;;;5.53;4.60;;;21.90;85.50;;;;;;5063118;28;20053;-31
2023/09/08 06:38:31;;;;;;;4.47;4.05;;;20.80;77.10;;;;;;5060226;28;20120;-32
2023/09/08 06:40:58;;;;;;;5.93;4.07;;;22.00;72.80;;;;;;5063504;28;20159;-33
2023/09/08 06:43:25;;;;;;;4.90;4.40;;;;;;;;;;5062500;28;20140;-31
2023/09/08 06:45:52;;;;;;;5.40;4.32;;;22.00;86.10;;;;;;5072562;28;20128;-30
2023/09/08 06:48:19;;;;;;;5.95;4.47;;;21.80;76.50;;;;;;5073203;28;20132;-34
2023/09/08 06:50:46;;;;;;;5.30;4.75;;;22.20;77.80;;;;;;5073558;28;20127;-32
2023/09/08 06:53:14;;;;;;;4.43;4.03;;;22.50;86.00;;;;;;5073820;28;20131;-33
2023/09/08 06:55:42;;;;;;;5.72;4.60;;;;;;;;;;5073524;28;20562;-36
2023/09/08 06:58:08;;;;;;;4.72;4.22;;;22.10;86.10;;;;;;5066949;28;20051;-30
2023/09/08 07:00:35;;;;;;;4.80;4.30;;;22.20;74.20;;;;;;5061940;28;20148;-32
2023/09/08 07:03:02;;;;;;;4.32;3.92;;;22.10;85.70;;;;;;5059984;28;20132;-32
2023/09/08 07:05:29;;;;;;;5.13;4.63;;;;;;;;;;5064122;28;20053;-35
2023/09/08 07:07:56;;;;;;;4.47;3.88;;;21.60;85.50;;;;;;5062198;28;20480;-31
2023/09/08 07:10:25;;;;;;;4.60;4.10;;;21.90;79.80;;;;;;5062010;28;20137;-31
2023/09/08 07:12:52;;;;;;;4.60;4.07;;;;;;;;;;5063805;28;20131;-34
2023/09/08 07:15:18;;;;;;;4.13;3.72;;;21.80;85.20;;;;;;5073002;28;20087;-36
2023/09/08 07:17:45;;;;;;;5.55;3.90;;;21.90;85.40;;;;;;5053027;28;20128;-40
2023/09/08 07:20:12;;;;;;;5.53;4.13;;;;;;;;;;5052958;28;20123;-37
2023/09/08 07:22:39;;;;;;;4.30;3.90;;;20.90;85.00;;;;;;5053018;28;20137;-40
2023/09/08 07:25:07;;;;;;;5.30;3.80;;;21.90;69.40;;;;;;5052598;28;20123;-37
2023/09/08 07:27:35;;;;;;;4.10;3.70;;;21.90;69.40;;;;;;5052486;28;20132;-36
2023/09/08 07:30:02;;;;;;;6.20;3.85;;;;;;;;;;5052552;28;20136;-36
2023/09/08 07:32:29;;;;;;;4.95;4.00;;;22.00;85.90;;;;;;5052654;28;20557;-35
2023/09/08 07:34:56;;;;;;;5.50;4.00;;;21.80;85.70;;;;;;5053040;28;20151;-39
2023/09/08 07:37:23;;;;;;;4.22;3.83;;;21.70;73.50;;;;;;5065184;28;20549;-38
2023/09/08 07:39:49;;;;;;;4.30;3.80;;;21.90;85.90;;;;;;5066455;28;20049;-38
2023/09/08 07:42:17;;;;;;;4.32;3.60;;;;;;;;;;5061604;28;20123;-33
2023/09/08 07:44:45;;;;;;;4.43;4.00;;;21.60;85.30;;;;;;5060996;28;20045;-39
2023/09/08 07:47:12;;;;;;;4.30;3.90;;;21.60;86.10;;;;;;5061651;28;20156;-39
2023/09/08 07:49:39;;;;;;;4.15;3.65;;;;;;;;;;5062861;28;20140;-35
2023/09/08 07:52:07;;;;;;;4.95;4.07;;;21.90;85.80;;;;;;5061102;28;20132;-38
2023/09/08 07:54:34;;;;;;;4.20;3.80;;;21.10;85.20;;;;;;5061708;28;20045;-38
2023/09/08 07:57:00;;;;;;;5.20;3.83;;;22.60;86.00;;;;;;5057121;28;20068;-39
2023/09/08 07:59:27;;;;;;;5.43;3.88;;;22.40;73.00;;;;;;5071852;28;20127;-36
2023/09/08 08:01:55;;;;;;;4.05;3.67;;;21.90;85.60;;;;;;5072532;28;20078;-40
2023/09/08 08:04:22;;;;;;;4.40;4.00;;;22.00;86.40;;;;;;5072002;28;20467;-37
2023/09/08 08:06:49;;;;;;;4.63;4.20;;;21.60;85.60;;;;;;5072312;28;20131;-36
2023/09/08 08:09:16;;;;;;;4.40;3.65;;;22.60;85.20;;;;;;5070554;28;20082;-35
2023/09/08 08:11:43;;;;;;;5.97;4.22;;;21.00;85.30;;;;;;5052355;28;20128;-39
2023/09/08 08:14:09;;;;;;;4.10;3.70;;;21.70;74.20;;;;;;5050662;28;20128;-37
2023/09/08 08:16:36;;;;;;;3.92;3.33;;;21.20;79.80;;;;;;5050668;28;20132;-38
2023/09/08 08:19:04;;;;;;;4.53;3.70;;;22.50;86.70;;;;;;5051120;28;20057;-35
2023/09/08 08:21:31;;;;;;;4.05;3.55;;;;;;;;;;5050892;28;20320;-37
2023/09/08 08:23:58;;;;;;;4.57;3.92;;;21.60;85.40;;;;;;5055778;28;20140;-39
2023/09/08 08:26:28;;;;;;;5.65;3.70;;;21.70;86.30;;;;;;5070616;28;20470;-40
2023/09/08 08:28:55;;;;;;;5.35;3.92;;;;;;;;;;5071871;28;20127;-35
2023/09/08 08:31:24;;;;;;;3.92;3.28;;;;;;;;;;5072209;28;20135;-35
2023/09/08 08:33:51;;;;;;;5.60;3.70;;;;;;;;;;5071272;28;20131;-36
2023/09/08 08:36:19;;;;;;;4.97;3.60;;;22.60;86.20;;;;;;5071209;28;20132;-35
2023/09/08 08:38:45;;;;;;;3.97;3.42;;;22.10;86.60;;;;;;5071020;28;20044;-35
2023/09/08 08:41:12;;;;;;;4.00;3.55;;;22.20;74.90;;;;;;5071889;28;20122;-32
2023/09/08 08:43:39;;;;;;;3.92;3.53;;;21.80;86.00;;;;;;5071518;28;20135;-32
2023/09/08 08:46:06;;;;;;;4.43;3.78;;;21.40;86.20;;;;;;5070480;28;20072;-31
2023/09/08 08:48:33;;;;;;;3.85;3.50;;;;;;;;;;5059598;28;20566;-32
2023/09/08 08:51:00;;;;;;;4.35;3.70;;;21.70;85.60;;;;;;5051640;28;20482;-32
2023/09/08 08:53:28;;;;;;;4.28;3.65;;;21.90;69.90;;;;;;5057145;28;20144;-33
2023/09/08 08:55:55;;;;;;;4.18;3.75;;;;;;;;;;5058584;28;20509;-31
2023/09/08 08:58:24;;;;;;;4.43;3.80;;;21.80;85.70;;;;;;5059076;28;20124;-31
2023/09/08 09:00:53;;;;;;;3.90;3.30;;;22.70;72.00;;;;;;5063002;28;20056;-33
2023/09/08 09:03:20;;;;;;;4.90;3.67;;;22.20;86.30;;;;;;5065071;28;20498;-32
2023/09/08 09:05:46;;;;;;;4.10;3.70;;;21.40;85.60;;;;;;5066306;28;20553;-30
2023/09/08 09:08:13;;;;;;;4.25;3.45;;;22.00;70.00;;;;;;5066412;28;20127;-34
2023/09/08 09:10:42;;;;;;;4.50;3.30;;;22.00;86.10;;;;;;5063953;28;20052;-31
2023/09/08 09:13:08;;;;;;;4.47;3.50;;;21.60;86.00;;;;;;5063583;28;20131;-31
2023/09/08 09:15:35;;;;;;;4.38;3.53;;;;;;;;;;5062927;28;20484;-34
2023/09/08 09:18:03;;;;;;;5.38;3.80;;;22.00;86.10;;;;;;5064731;28;20453;-36
2023/09/08 09:20:30;;;;;;;5.43;3.45;;;21.80;85.70;;;;;;5066144;28;20047;-36
2023/09/08 09:22:57;;;;;;;3.97;3.50;;;21.70;85.80;;;;;;5064944;28;20123;-36
2023/09/08 09:25:24;;;;;;;3.92;3.53;;;;;;;;;;5063922;28;20569;-33
2023/09/08 09:27:56;;;;;;;5.28;3.80;;;21.70;85.70;;;;;;5054762;28;20048;-37
2023/09/08 09:30:23;;;;;;;3.75;3.35;;;22.00;70.00;;;;;;5054761;28;20155;-35
2023/09/08 09:32:50;;;;;;;3.65;3.25;;;20.90;72.70;;;;;;5054512;28;20102;-35
2023/09/08 09:35:17;;;;;;;6.68;3.33;;;21.60;85.70;;;;;;5055006;28;20127;-36
2023/09/08 09:37:44;;;;;;;4.00;3.60;;;;;;;;;;5064860;28;20187;-34
2023/09/08 09:40:11;;;;;;;5.70;3.30;;;22.20;86.20;;;;;;5066965;28;20136;-31
2023/09/08 09:42:39;;;;;;;9.55;4.07;;;21.40;69.80;;;;;;5064404;28;20136;-34
2023/09/08 09:45:08;;;;;;;4.85;3.63;;;21.10;85.80;;;;;;5054712;28;20131;-30
2023/09/08 09:47:35;;;;;;;3.70;3.30;;;21.90;86.00;;;;;;5054236;28;20056;-31
2023/09/08 09:50:02;;;;;;;4.15;3.53;;;22.80;86.40;;;;;;5054515;28;20135;-30
2023/09/08 09:52:31;;;;;;;4.00;3.65;;;;;;;;;;5053997;28;20076;-32
2023/09/08 09:54:58;;;;;;;4.80;3.30;;;21.30;86.10;;;;;;5054263;28;20052;-31
2023/09/08 09:57:25;;;;;;;4.43;3.35;;;22.00;82.40;;;;;;5054696;28;20896;-31
2023/09/08 09:59:53;;;;;;;4.20;3.47;;;23.00;86.60;;;;;;5059930;28;20119;-30
2023/09/08 10:02:21;;;;;;;6.40;3.25;;;22.10;70.20;;;;;;5065531;28;20157;-32
2023/09/08 10:04:48;;;;;;;3.42;3.13;;;21.80;85.90;;;;;;5068101;28;20120;-31
2023/09/08 10:07:16;;;;;;;3.60;3.10;;;21.80;85.70;;;;;;5070461;28;20571;-31
2023/09/08 10:09:42;;;;;;;4.00;3.45;;;23.00;86.60;;;;;;5073715;28;20056;-39
2023/09/08 10:12:09;;;;;;;5.82;3.70;;;21.90;77.60;;;;;;5062792;28;20140;-36
2023/09/08 10:14:36;;;;;;;4.43;3.53;;;23.20;86.70;;;;;;5071286;28;20577;-39
2023/09/08 10:17:03;;;;;;;4.95;3.50;;;23.00;70.80;;;;;;5074064;28;20586;-35
2023/09/08 10:19:33;;;;;;;3.85;3.08;;;22.20;71.00;;;;;;5073650;28;20119;-38
2023/09/08 10:22:00;;;;;;;3.80;3.40;;;22.20;72.50;;;;;;5074613;28;20049;-36
2023/09/08 10:24:28;;;;;;;3.92;3.45;;;22.20;70.20;;;;;;5073825;28;20127;-35
2023/09/08 10:26:59;;;;;;;4.65;3.33;;;22.10;85.80;;;;;;5074587;28;20576;-38
2023/09/08 10:29:26;;;;;;;3.50;3.15;;;;;;;;;;5074056;28;20557;-35
2023/09/08 10:31:53;;;;;;;4.47;3.30;;;22.10;86.00;;;;;;5073956;28;20469;-38
2023/09/08 10:34:20;;;;;;;3.63;3.33;;;;;;;;;;5073831;28;20481;-33
2023/09/08 10:36:48;;;;;;;3.67;3.30;;;21.30;85.20;;;;;;5060462;28;20475;-39
2023/09/08 10:39:35;;;;;;;4.18;3.35;;;22.50;85.80;;;;;;5053972;28;20132;-38
2023/09/08 10:42:21;;;;;;;3.63;3.10;;;22.60;70.20;;;;;;5052744;28;20048;-34
2023/09/08 10:44:57;;;;;;;3.65;3.10;;;21.90;85.60;;;;;;5071439;28;20483;-38
2023/09/08 10:47:24;;;;;;;3.50;3.20;;;21.90;85.40;;;;;;5053725;28;20053;-36
2023/09/08 10:49:53;;;;;;;4.00;3.50;;;21.50;78.00;;;;;;5053704;28;20045;-34
2023/09/08 10:52:22;;;;;;;3.30;3.00;;;23.10;86.60;;;;;;5053551;28;20458;-30
2023/09/08 10:54:49;;;;;;;3.40;2.80;;;19.20;68.40;;;;;;5053142;28;20227;-37
2023/09/08 10:57:17;;;;;;;3.75;2.90;;;22.00;85.40;;;;;;5053090;28;20320;-30
2023/09/08 10:59:46;;;;;;;3.70;3.22;;;22.20;69.90;;;;;;5062500;28;20075;-31
2023/09/08 11:02:32;;;;;;;3.50;3.17;;;22.20;69.90;;;;;;5063124;28;20518;-33
2023/09/08 11:04:59;;;;;;;4.05;3.28;;;22.00;81.00;;;;;;5053043;28;20132;-32
2023/09/08 11:07:27;;;;;;;3.15;2.85;;;21.90;86.50;;;;;;5052355;28;20053;-32
2023/09/08 11:09:54;;;;;;;3.78;3.28;;;21.40;85.60;;;;;;5053078;28;20128;-31
2023/09/08 11:12:22;;;;;;;3.80;3.00;;;;;;;;;;5052447;28;20477;-34
2023/09/08 11:14:49;;;;;;;4.40;3.10;;;22.30;69.80;;;;;;5052474;28;20079;-33
2023/09/08 11:17:16;;;;;;;5.32;3.40;;;22.30;85.50;;;;;;5051880;28;20140;-31
2023/09/08 11:19:47;;;;;;;3.97;3.13;;;22.30;69.70;;;;;;5052049;28;20119;-35
2023/09/08 11:22:14;;;;;;;3.63;3.00;;;22.30;85.40;;;;;;5051203;28;20045;-31
2023/09/08 11:24:42;;;;;;;3.70;3.10;;;22.30;69.70;;;;;;5065042;28;20058;-31
2023/09/08 11:27:09;;;;;;;3.25;2.95;;;;;;;;;;5066686;28;20132;-32
2023/09/08 11:29:36;;;;;;;3.47;3.17;;;22.30;85.90;;;;;;5068494;28;20056;-31
2023/09/08 11:32:04;;;;;;;3.45;3.15;;;21.90;85.80;;;;;;5061546;28;20480;-31
2023/09/08 11:34:30;;;;;;;4.10;3.20;;;21.70;85.30;;;;;;5063596;28;20040;-31
2023/09/08 11:36:58;;;;;;;3.83;3.10;;;22.80;86.30;;;;;;5066290;28;20505;-31
2023/09/08 11:39:25;;;;;;;4.43;2.90;;;22.10;85.50;;;;;;5055031;28;20132;-33
2023/09/08 11:41:53;;;;;;;5.90;3.13;;;21.90;69.50;;;;;;5054929;28;20049;-35
2023/09/08 11:44:20;;;;;;;3.33;3.03;;;22.60;79.20;;;;;;5063084;28;20080;-31
2023/09/08 11:46:48;;;;;;;3.50;3.20;;;22.90;86.00;;;;;;5062029;28;20429;-38
2023/09/08 11:49:14;;;;;;;3.40;2.88;;;23.60;85.90;;;;;;5060451;28;20398;-38
2023/09/08 11:51:41;;;;;;;5.82;3.30;;;22.80;85.60;;;;;;5053510;28;20140;-38
2023/09/08 11:54:08;;;;;;;4.22;2.75;;;23.50;86.20;;;;;;5055622;28;20704;-35
2023/09/08 11:56:34;;;;;;;3.65;2.90;;;22.50;80.20;;;;;;5072480;28;20139;-31
2023/09/08 11:59:02;;;;;;;4.47;2.83;;;22.30;84.90;;;;;;5072647;28;20137;-30
2023/09/08 12:01:29;;;;;;;3.42;3.00;;;22.10;85.10;;;;;;5072535;28;20135;-30
2023/09/08 12:03:57;;;;;;;4.00;3.28;;;23.80;85.90;;;;;;5071978;28;20045;-30
2023/09/08 12:06:25;;;;;;;3.30;2.78;;;22.40;69.70;;;;;;5071456;28;20048;-30
2023/09/08 12:08:52;;;;;;;3.22;2.72;;;21.60;84.70;;;;;;5072175;28;20576;-30
2023/09/08 12:11:19;;;;;;;3.20;2.90;;;22.20;77.50;;;;;;5072058;28;20567;-31
2023/09/08 12:13:45;;;;;;;3.20;2.88;;;22.30;85.70;;;;;;5066727;28;20136;-31
2023/09/08 12:16:21;;;;;;;4.65;2.97;;;22.40;86.10;;;;;;5055792;28;20076;-32
2023/09/08 12:18:50;;;;;;;3.90;2.88;;;22.10;85.90;;;;;;5054676;28;20539;-30
2023/09/08 12:21:17;;;;;;;4.15;3.25;;;22.30;72.40;;;;;;5071000;28;20132;-33
2023/09/08 12:23:50;;;;;;;3.85;3.10;;;22.20;85.10;;;;;;5066074;28;20124;-32
2023/09/08 12:26:17;;;;;;;6.72;3.45;;;22.50;86.00;;;;;;5053548;28;20731;-31
2023/09/08 12:28:44;;;;;;;5.75;3.75;;;21.80;81.30;;;;;;5060010;28;20505;-32
2023/09/08 12:31:10;;;;;;;5.00;3.38;;;21.60;85.20;;;;;;5071913;28;20584;-31
2023/09/08 12:33:38;;;;;;;4.90;3.67;;;22.50;69.60;;;;;;5069793;28;20468;-32
2023/09/08 12:36:11;;;;;;;5.22;4.03;;;22.60;69.60;;;;;;5071009;28;20131;-37
2023/09/08 12:38:38;;;;;;;5.63;4.18;;;23.60;80.50;;;;;;5072136;28;20076;-31
2023/09/08 12:41:04;;;;;;;6.68;4.00;;;21.80;85.10;;;;;;5071950;28;20135;-32
2023/09/08 12:43:32;;;;;;;9.07;4.03;;;22.80;85.90;;;;;;5071461;28;20044;-31
2023/09/08 12:45:59;;;;;;;5.32;3.83;;;22.70;85.60;;;;;;5055989;28;20127;-31
2023/09/08 12:48:26;;;;;;;6.00;3.90;;;;;;;;;;5051653;28;20148;-36
2023/09/08 12:50:54;;;;;;;8.25;4.25;;;23.90;84.70;;;;;;5059158;28;20484;-31
2023/09/08 12:53:23;;;;;;;6.78;4.40;;;22.70;85.00;;;;;;5071576;28;20135;-32
2023/09/08 12:55:49;;;;;;;5.50;4.00;;;23.90;85.60;;;;;;5071866;28;20382;-40
2023/09/08 12:58:16;;;;;;;6.88;4.35;;;;;;;;;;5071669;28;20131;-36
2023/09/08 13:00:43;;;;;;;6.65;4.55;;;23.20;85.80;;;;;;5072074;28;20135;-40
2023/09/08 13:03:10;;;;;;;6.05;3.97;;;;;;;;;;5071215;28;20127;-34
2023/09/08 13:05:38;;;;;;;8.05;4.50;;;22.90;85.80;;;;;;5071803;28;20135;-40
2023/09/08 13:08:06;;;;;;;7.18;4.20;;;22.30;85.50;;;;;;5071520;28;20089;-40